sensor_id;sensor_type;location;lat;lon;timestamp;P1;durP1;ratioP1;P2;durP2;ratioP2
30635;SDS011;17400;52.392;9.750;2024-01-10T00:01:18;14.53;;;5.70;;
30635;SDS011;17400;52.392;9.750;2024-01-10T00:03:49;10.33;;;5.23;;
30635;SDS011;17400;52.392;9.750;2024-01-10T00:06:17;12.57;;;6.17;;
30635;SDS011;17400;52.392;9.750;2024-01-10T00:08:45;14.57;;;7.13;;
30635;SDS011;17400;52.392;9.750;2024-01-10T00:11:13;10.97;;;6.20;;
30635;SDS011;17400;52.392;9.750;2024-01-10T00:13:41;13.23;;;5.73;;
30635;SDS011;17400;52.392;9.750;2024-01-10T00:16:09;12.20;;;6.33;;
30635;SDS011;17400;52.392;9.750;2024-01-10T00:18:39;11.07;;;5.00;;
30635;SDS011;17400;52.392;9.750;2024-01-10T00:21:09;13.73;;;5.97;;
30635;SDS011;17400;52.392;9.750;2024-01-10T00:23:37;9.97;;;5.73;;
30635;SDS011;17400;52.392;9.750;2024-01-10T00:26:05;12.73;;;6.77;;
30635;SDS011;17400;52.392;9.750;2024-01-10T00:28:33;11.77;;;6.37;;
30635;SDS011;17400;52.392;9.750;2024-01-10T00:31:01;12.07;;;5.63;;
30635;SDS011;17400;52.392;9.750;2024-01-10T00:33:29;10.40;;;5.50;;
30635;SDS011;17400;52.392;9.750;2024-01-10T00:35:57;10.80;;;5.30;;
30635;SDS011;17400;52.392;9.750;2024-01-10T00:38:26;11.83;;;6.27;;
30635;SDS011;17400;52.392;9.750;2024-01-10T00:40:54;14.73;;;6.53;;
30635;SDS011;17400;52.392;9.750;2024-01-10T00:43:23;12.27;;;5.90;;
30635;SDS011;17400;52.392;9.750;2024-01-10T00:45:50;12.83;;;6.07;;
30635;SDS011;17400;52.392;9.750;2024-01-10T00:48:18;13.53;;;7.63;;
30635;SDS011;17400;52.392;9.750;2024-01-10T00:50:47;11.40;;;6.60;;
30635;SDS011;17400;52.392;9.750;2024-01-10T00:53:14;14.60;;;7.43;;
30635;SDS011;17400;52.392;9.750;2024-01-10T00:55:44;11.00;;;5.23;;
30635;SDS011;17400;52.392;9.750;2024-01-10T00:58:11;13.50;;;6.93;;
30635;SDS011;17400;52.392;9.750;2024-01-10T01:00:39;13.90;;;6.70;;
30635;SDS011;17400;52.392;9.750;2024-01-10T01:03:07;9.57;;;5.57;;
30635;SDS011;17400;52.392;9.750;2024-01-10T01:05:35;15.03;;;7.10;;
30635;SDS011;17400;52.392;9.750;2024-01-10T01:08:03;14.00;;;6.47;;
30635;SDS011;17400;52.392;9.750;2024-01-10T01:10:32;14.07;;;6.77;;
30635;SDS011;17400;52.392;9.750;2024-01-10T01:13:05;12.23;;;6.90;;
30635;SDS011;17400;52.392;9.750;2024-01-10T01:15:33;12.83;;;7.07;;
30635;SDS011;17400;52.392;9.750;2024-01-10T01:18:01;13.67;;;6.80;;
30635;SDS011;17400;52.392;9.750;2024-01-10T01:20:29;11.90;;;6.13;;
30635;SDS011;17400;52.392;9.750;2024-01-10T01:22:57;9.37;;;5.83;;
30635;SDS011;17400;52.392;9.750;2024-01-10T01:25:25;11.37;;;6.47;;
30635;SDS011;17400;52.392;9.750;2024-01-10T01:27:53;13.90;;;6.77;;
30635;SDS011;17400;52.392;9.750;2024-01-10T01:30:22;13.07;;;6.37;;
30635;SDS011;17400;52.392;9.750;2024-01-10T01:32:50;12.17;;;6.20;;
30635;SDS011;17400;52.392;9.750;2024-01-10T01:35:19;12.17;;;6.27;;
30635;SDS011;17400;52.392;9.750;2024-01-10T01:37:49;15.43;;;7.13;;
30635;SDS011;17400;52.392;9.750;2024-01-10T01:40:17;13.37;;;6.23;;
30635;SDS011;17400;52.392;9.750;2024-01-10T01:42:45;17.70;;;7.30;;
30635;SDS011;17400;52.392;9.750;2024-01-10T01:45:14;12.27;;;7.27;;
30635;SDS011;17400;52.392;9.750;2024-01-10T01:47:43;10.13;;;6.43;;
30635;SDS011;17400;52.392;9.750;2024-01-10T01:50:12;14.53;;;6.50;;
30635;SDS011;17400;52.392;9.750;2024-01-10T01:52:40;13.50;;;6.50;;
30635;SDS011;17400;52.392;9.750;2024-01-10T01:55:08;13.03;;;6.37;;
30635;SDS011;17400;52.392;9.750;2024-01-10T01:57:37;11.03;;;5.93;;
30635;SDS011;17400;52.392;9.750;2024-01-10T02:00:06;15.00;;;7.17;;
30635;SDS011;17400;52.392;9.750;2024-01-10T02:02:35;15.17;;;8.00;;
30635;SDS011;17400;52.392;9.750;2024-01-10T02:05:06;11.60;;;6.43;;
30635;SDS011;17400;52.392;9.750;2024-01-10T02:07:34;11.93;;;6.63;;
30635;SDS011;17400;52.392;9.750;2024-01-10T02:10:02;18.07;;;6.93;;
30635;SDS011;17400;52.392;9.750;2024-01-10T02:12:30;14.20;;;7.03;;
30635;SDS011;17400;52.392;9.750;2024-01-10T02:14:58;12.67;;;7.20;;
30635;SDS011;17400;52.392;9.750;2024-01-10T02:17:26;12.30;;;6.17;;
30635;SDS011;17400;52.392;9.750;2024-01-10T02:20:08;15.83;;;7.70;;
30635;SDS011;17400;52.392;9.750;2024-01-10T02:22:36;15.37;;;8.40;;
30635;SDS011;17400;52.392;9.750;2024-01-10T02:25:08;13.70;;;6.53;;
30635;SDS011;17400;52.392;9.750;2024-01-10T02:27:36;12.43;;;7.30;;
30635;SDS011;17400;52.392;9.750;2024-01-10T02:30:05;13.73;;;6.43;;
30635;SDS011;17400;52.392;9.750;2024-01-10T02:32:34;16.13;;;6.83;;
30635;SDS011;17400;52.392;9.750;2024-01-10T02:35:02;15.77;;;7.53;;
30635;SDS011;17400;52.392;9.750;2024-01-10T02:37:31;15.40;;;7.67;;
30635;SDS011;17400;52.392;9.750;2024-01-10T02:39:58;13.20;;;6.93;;
30635;SDS011;17400;52.392;9.750;2024-01-10T02:42:28;21.97;;;9.13;;
30635;SDS011;17400;52.392;9.750;2024-01-10T02:44:56;15.23;;;7.23;;
30635;SDS011;17400;52.392;9.750;2024-01-10T02:47:24;16.70;;;6.70;;
30635;SDS011;17400;52.392;9.750;2024-01-10T02:49:52;12.00;;;6.77;;
30635;SDS011;17400;52.392;9.750;2024-01-10T02:52:20;11.83;;;7.20;;
30635;SDS011;17400;52.392;9.750;2024-01-10T02:54:49;12.27;;;7.87;;
30635;SDS011;17400;52.392;9.750;2024-01-10T02:57:17;14.40;;;8.40;;
30635;SDS011;17400;52.392;9.750;2024-01-10T02:59:46;16.33;;;7.40;;
30635;SDS011;17400;52.392;9.750;2024-01-10T03:02:13;16.63;;;8.20;;
30635;SDS011;17400;52.392;9.750;2024-01-10T03:04:41;12.30;;;7.13;;
30635;SDS011;17400;52.392;9.750;2024-01-10T03:07:11;15.00;;;7.63;;
30635;SDS011;17400;52.392;9.750;2024-01-10T03:09:39;18.13;;;7.97;;
30635;SDS011;17400;52.392;9.750;2024-01-10T03:12:07;9.17;;;6.10;;
30635;SDS011;17400;52.392;9.750;2024-01-10T03:14:35;13.90;;;8.17;;
30635;SDS011;17400;52.392;9.750;2024-01-10T03:17:04;16.13;;;9.20;;
30635;SDS011;17400;52.392;9.750;2024-01-10T03:19:32;14.60;;;7.93;;
30635;SDS011;17400;52.392;9.750;2024-01-10T03:22:00;15.70;;;8.97;;
30635;SDS011;17400;52.392;9.750;2024-01-10T03:24:29;14.43;;;8.67;;
30635;SDS011;17400;52.392;9.750;2024-01-10T03:26:57;19.60;;;9.37;;
30635;SDS011;17400;52.392;9.750;2024-01-10T03:29:25;15.90;;;8.53;;
30635;SDS011;17400;52.392;9.750;2024-01-10T03:31:54;14.00;;;7.60;;
30635;SDS011;17400;52.392;9.750;2024-01-10T03:34:25;16.60;;;8.73;;
30635;SDS011;17400;52.392;9.750;2024-01-10T03:36:52;20.13;;;8.87;;
30635;SDS011;17400;52.392;9.750;2024-01-10T03:39:20;14.17;;;8.20;;
30635;SDS011;17400;52.392;9.750;2024-01-10T03:41:48;15.40;;;9.27;;
30635;SDS011;17400;52.392;9.750;2024-01-10T03:44:16;19.93;;;10.47;;
30635;SDS011;17400;52.392;9.750;2024-01-10T03:46:44;17.63;;;9.60;;
30635;SDS011;17400;52.392;9.750;2024-01-10T03:49:11;17.73;;;9.97;;
30635;SDS011;17400;52.392;9.750;2024-01-10T03:51:40;19.97;;;9.57;;
30635;SDS011;17400;52.392;9.750;2024-01-10T03:54:08;17.80;;;9.50;;
30635;SDS011;17400;52.392;9.750;2024-01-10T03:56:36;19.20;;;10.13;;
30635;SDS011;17400;52.392;9.750;2024-01-10T03:59:04;19.47;;;10.80;;
30635;SDS011;17400;52.392;9.750;2024-01-10T04:01:32;19.07;;;8.83;;
30635;SDS011;17400;52.392;9.750;2024-01-10T04:04:01;22.53;;;10.57;;
30635;SDS011;17400;52.392;9.750;2024-01-10T04:06:29;18.17;;;9.77;;
30635;SDS011;17400;52.392;9.750;2024-01-10T04:08:58;22.33;;;10.10;;
30635;SDS011;17400;52.392;9.750;2024-01-10T04:11:26;17.90;;;9.97;;
30635;SDS011;17400;52.392;9.750;2024-01-10T04:13:53;18.50;;;11.37;;
30635;SDS011;17400;52.392;9.750;2024-01-10T04:16:21;21.07;;;10.47;;
30635;SDS011;17400;52.392;9.750;2024-01-10T04:18:49;19.47;;;9.87;;
30635;SDS011;17400;52.392;9.750;2024-01-10T04:21:17;22.40;;;11.63;;
30635;SDS011;17400;52.392;9.750;2024-01-10T04:23:45;19.30;;;9.63;;
30635;SDS011;17400;52.392;9.750;2024-01-10T04:26:14;18.70;;;10.03;;
30635;SDS011;17400;52.392;9.750;2024-01-10T04:28:42;24.63;;;12.47;;
30635;SDS011;17400;52.392;9.750;2024-01-10T04:31:10;20.77;;;10.43;;
30635;SDS011;17400;52.392;9.750;2024-01-10T04:33:37;24.90;;;13.13;;
30635;SDS011;17400;52.392;9.750;2024-01-10T04:36:06;25.83;;;12.03;;
30635;SDS011;17400;52.392;9.750;2024-01-10T04:38:34;23.10;;;11.17;;
30635;SDS011;17400;52.392;9.750;2024-01-10T04:41:02;32.57;;;12.53;;
30635;SDS011;17400;52.392;9.750;2024-01-10T04:43:32;22.17;;;12.87;;
30635;SDS011;17400;52.392;9.750;2024-01-10T04:45:59;23.23;;;12.20;;
30635;SDS011;17400;52.392;9.750;2024-01-10T04:48:28;26.07;;;13.07;;
30635;SDS011;17400;52.392;9.750;2024-01-10T04:50:56;25.37;;;13.60;;
30635;SDS011;17400;52.392;9.750;2024-01-10T04:53:24;25.40;;;13.17;;
30635;SDS011;17400;52.392;9.750;2024-01-10T04:55:51;26.37;;;12.23;;
30635;SDS011;17400;52.392;9.750;2024-01-10T04:58:19;22.00;;;12.47;;
30635;SDS011;17400;52.392;9.750;2024-01-10T05:00:48;25.33;;;12.77;;
30635;SDS011;17400;52.392;9.750;2024-01-10T05:03:16;30.73;;;12.40;;
30635;SDS011;17400;52.392;9.750;2024-01-10T05:05:44;27.87;;;13.77;;
30635;SDS011;17400;52.392;9.750;2024-01-10T05:08:12;30.43;;;14.47;;
30635;SDS011;17400;52.392;9.750;2024-01-10T05:10:40;32.50;;;14.10;;
30635;SDS011;17400;52.392;9.750;2024-01-10T05:13:08;23.50;;;13.30;;
30635;SDS011;17400;52.392;9.750;2024-01-10T05:15:36;23.47;;;13.00;;
30635;SDS011;17400;52.392;9.750;2024-01-10T05:18:06;32.80;;;13.73;;
30635;SDS011;17400;52.392;9.750;2024-01-10T05:20:34;27.57;;;12.50;;
30635;SDS011;17400;52.392;9.750;2024-01-10T05:23:02;22.20;;;13.03;;
30635;SDS011;17400;52.392;9.750;2024-01-10T05:25:30;23.90;;;11.77;;
30635;SDS011;17400;52.392;9.750;2024-01-10T05:27:58;23.63;;;11.97;;
30635;SDS011;17400;52.392;9.750;2024-01-10T05:30:26;25.57;;;13.50;;
30635;SDS011;17400;52.392;9.750;2024-01-10T05:32:54;26.10;;;12.30;;
30635;SDS011;17400;52.392;9.750;2024-01-10T05:35:24;23.83;;;13.47;;
30635;SDS011;17400;52.392;9.750;2024-01-10T05:37:52;24.13;;;12.27;;
30635;SDS011;17400;52.392;9.750;2024-01-10T05:40:20;27.40;;;14.70;;
30635;SDS011;17400;52.392;9.750;2024-01-10T05:42:48;28.57;;;13.17;;
30635;SDS011;17400;52.392;9.750;2024-01-10T05:45:16;25.10;;;12.27;;
30635;SDS011;17400;52.392;9.750;2024-01-10T05:47:44;26.50;;;12.53;;
30635;SDS011;17400;52.392;9.750;2024-01-10T05:50:14;25.23;;;14.37;;
30635;SDS011;17400;52.392;9.750;2024-01-10T05:52:43;24.70;;;12.80;;
30635;SDS011;17400;52.392;9.750;2024-01-10T05:55:15;26.03;;;12.30;;
30635;SDS011;17400;52.392;9.750;2024-01-10T05:57:43;26.10;;;12.67;;
30635;SDS011;17400;52.392;9.750;2024-01-10T06:00:11;21.37;;;11.60;;
30635;SDS011;17400;52.392;9.750;2024-01-10T06:02:44;25.23;;;13.10;;
30635;SDS011;17400;52.392;9.750;2024-01-10T06:05:11;24.87;;;14.87;;
30635;SDS011;17400;52.392;9.750;2024-01-10T06:07:39;23.27;;;13.60;;
30635;SDS011;17400;52.392;9.750;2024-01-10T06:10:12;22.07;;;13.43;;
30635;SDS011;17400;52.392;9.750;2024-01-10T06:12:40;20.70;;;12.13;;
30635;SDS011;17400;52.392;9.750;2024-01-10T06:15:08;25.57;;;14.03;;
30635;SDS011;17400;52.392;9.750;2024-01-10T06:17:36;29.70;;;14.47;;
30635;SDS011;17400;52.392;9.750;2024-01-10T06:20:05;26.33;;;13.77;;
30635;SDS011;17400;52.392;9.750;2024-01-10T06:22:34;31.37;;;13.80;;
30635;SDS011;17400;52.392;9.750;2024-01-10T06:25:02;26.47;;;13.80;;
30635;SDS011;17400;52.392;9.750;2024-01-10T06:27:32;30.13;;;14.10;;
30635;SDS011;17400;52.392;9.750;2024-01-10T06:30:00;25.97;;;12.83;;
30635;SDS011;17400;52.392;9.750;2024-01-10T06:32:27;21.30;;;12.53;;
30635;SDS011;17400;52.392;9.750;2024-01-10T06:34:55;29.90;;;12.30;;
30635;SDS011;17400;52.392;9.750;2024-01-10T06:37:23;21.27;;;12.63;;
30635;SDS011;17400;52.392;9.750;2024-01-10T06:39:51;21.73;;;11.67;;
30635;SDS011;17400;52.392;9.750;2024-01-10T06:42:19;23.67;;;12.77;;
30635;SDS011;17400;52.392;9.750;2024-01-10T06:44:48;29.03;;;13.73;;
30635;SDS011;17400;52.392;9.750;2024-01-10T06:47:15;25.50;;;13.37;;
30635;SDS011;17400;52.392;9.750;2024-01-10T06:49:44;25.60;;;13.63;;
30635;SDS011;17400;52.392;9.750;2024-01-10T06:52:11;23.70;;;12.67;;
30635;SDS011;17400;52.392;9.750;2024-01-10T06:54:39;25.33;;;12.40;;
30635;SDS011;17400;52.392;9.750;2024-01-10T06:57:07;27.87;;;14.13;;
30635;SDS011;17400;52.392;9.750;2024-01-10T06:59:35;30.13;;;13.40;;
30635;SDS011;17400;52.392;9.750;2024-01-10T07:02:04;26.87;;;14.47;;
30635;SDS011;17400;52.392;9.750;2024-01-10T07:04:32;25.70;;;14.33;;
30635;SDS011;17400;52.392;9.750;2024-01-10T07:07:00;28.43;;;12.77;;
30635;SDS011;17400;52.392;9.750;2024-01-10T07:09:28;27.23;;;14.17;;
30635;SDS011;17400;52.392;9.750;2024-01-10T07:11:57;26.20;;;13.70;;
30635;SDS011;17400;52.392;9.750;2024-01-10T07:14:25;24.87;;;14.27;;
30635;SDS011;17400;52.392;9.750;2024-01-10T07:16:53;29.47;;;14.00;;
30635;SDS011;17400;52.392;9.750;2024-01-10T07:19:24;28.83;;;14.77;;
30635;SDS011;17400;52.392;9.750;2024-01-10T07:21:52;27.80;;;14.57;;
30635;SDS011;17400;52.392;9.750;2024-01-10T07:24:21;27.80;;;12.97;;
30635;SDS011;17400;52.392;9.750;2024-01-10T07:26:49;25.07;;;14.17;;
30635;SDS011;17400;52.392;9.750;2024-01-10T07:29:17;25.33;;;13.10;;
30635;SDS011;17400;52.392;9.750;2024-01-10T07:31:46;23.93;;;13.50;;
30635;SDS011;17400;52.392;9.750;2024-01-10T07:34:16;26.07;;;14.60;;
30635;SDS011;17400;52.392;9.750;2024-01-10T07:36:46;29.50;;;13.60;;
30635;SDS011;17400;52.392;9.750;2024-01-10T07:39:14;28.63;;;14.43;;
30635;SDS011;17400;52.392;9.750;2024-01-10T07:41:44;23.70;;;13.50;;
30635;SDS011;17400;52.392;9.750;2024-01-10T07:44:12;25.70;;;13.67;;
30635;SDS011;17400;52.392;9.750;2024-01-10T07:46:40;29.93;;;15.40;;
30635;SDS011;17400;52.392;9.750;2024-01-10T07:49:08;27.20;;;14.47;;
30635;SDS011;17400;52.392;9.750;2024-01-10T07:51:36;27.47;;;14.20;;
30635;SDS011;17400;52.392;9.750;2024-01-10T07:54:05;25.30;;;12.80;;
30635;SDS011;17400;52.392;9.750;2024-01-10T07:56:33;24.70;;;14.10;;
30635;SDS011;17400;52.392;9.750;2024-01-10T07:59:03;30.80;;;13.40;;
30635;SDS011;17400;52.392;9.750;2024-01-10T08:01:32;30.80;;;14.57;;
30635;SDS011;17400;52.392;9.750;2024-01-10T08:04:00;24.20;;;13.57;;
30635;SDS011;17400;52.392;9.750;2024-01-10T08:06:28;29.80;;;14.33;;
30635;SDS011;17400;52.392;9.750;2024-01-10T08:08:59;27.73;;;13.33;;
30635;SDS011;17400;52.392;9.750;2024-01-10T08:11:31;30.73;;;15.20;;
30635;SDS011;17400;52.392;9.750;2024-01-10T08:14:00;29.70;;;15.13;;
30635;SDS011;17400;52.392;9.750;2024-01-10T08:16:28;30.60;;;13.63;;
30635;SDS011;17400;52.392;9.750;2024-01-10T08:18:56;31.27;;;14.00;;
30635;SDS011;17400;52.392;9.750;2024-01-10T08:21:25;23.63;;;12.13;;
30635;SDS011;17400;52.392;9.750;2024-01-10T08:23:53;24.30;;;13.27;;
30635;SDS011;17400;52.392;9.750;2024-01-10T08:26:20;27.33;;;15.00;;
30635;SDS011;17400;52.392;9.750;2024-01-10T08:28:55;23.83;;;13.80;;
30635;SDS011;17400;52.392;9.750;2024-01-10T08:31:23;24.60;;;12.60;;
30635;SDS011;17400;52.392;9.750;2024-01-10T08:33:50;32.93;;;15.27;;
30635;SDS011;17400;52.392;9.750;2024-01-10T08:36:18;26.87;;;14.80;;
30635;SDS011;17400;52.392;9.750;2024-01-10T08:38:46;28.00;;;14.70;;
30635;SDS011;17400;52.392;9.750;2024-01-10T08:41:17;24.87;;;13.43;;
30635;SDS011;17400;52.392;9.750;2024-01-10T08:43:46;28.87;;;13.63;;
30635;SDS011;17400;52.392;9.750;2024-01-10T08:46:15;30.73;;;15.10;;
30635;SDS011;17400;52.392;9.750;2024-01-10T08:48:44;29.00;;;16.53;;
30635;SDS011;17400;52.392;9.750;2024-01-10T08:51:14;27.07;;;14.80;;
30635;SDS011;17400;52.392;9.750;2024-01-10T08:53:42;29.67;;;14.93;;
30635;SDS011;17400;52.392;9.750;2024-01-10T08:56:10;28.30;;;14.23;;
30635;SDS011;17400;52.392;9.750;2024-01-10T08:58:38;32.00;;;15.93;;
30635;SDS011;17400;52.392;9.750;2024-01-10T09:01:06;31.43;;;15.53;;
30635;SDS011;17400;52.392;9.750;2024-01-10T09:03:36;29.53;;;15.83;;
30635;SDS011;17400;52.392;9.750;2024-01-10T09:06:05;28.40;;;14.40;;
30635;SDS011;17400;52.392;9.750;2024-01-10T09:08:38;32.23;;;16.63;;
30635;SDS011;17400;52.392;9.750;2024-01-10T09:11:06;30.27;;;14.47;;
30635;SDS011;17400;52.392;9.750;2024-01-10T09:13:34;33.43;;;16.73;;
30635;SDS011;17400;52.392;9.750;2024-01-10T09:16:04;31.57;;;12.57;;
30635;SDS011;17400;52.392;9.750;2024-01-10T09:18:32;29.87;;;14.63;;
30635;SDS011;17400;52.392;9.750;2024-01-10T09:21:02;29.33;;;15.00;;
30635;SDS011;17400;52.392;9.750;2024-01-10T09:23:31;34.20;;;14.57;;
30635;SDS011;17400;52.392;9.750;2024-01-10T09:25:59;29.83;;;13.80;;
30635;SDS011;17400;52.392;9.750;2024-01-10T09:28:27;28.47;;;15.30;;
30635;SDS011;17400;52.392;9.750;2024-01-10T09:30:55;32.77;;;14.97;;
30635;SDS011;17400;52.392;9.750;2024-01-10T09:33:23;33.93;;;15.80;;
30635;SDS011;17400;52.392;9.750;2024-01-10T09:35:51;33.40;;;14.97;;
30635;SDS011;17400;52.392;9.750;2024-01-10T09:38:20;29.20;;;14.40;;
30635;SDS011;17400;52.392;9.750;2024-01-10T09:40:48;30.00;;;15.77;;
30635;SDS011;17400;52.392;9.750;2024-01-10T09:43:16;27.73;;;14.90;;
30635;SDS011;17400;52.392;9.750;2024-01-10T09:45:46;30.70;;;15.43;;
30635;SDS011;17400;52.392;9.750;2024-01-10T09:48:17;33.87;;;15.23;;
30635;SDS011;17400;52.392;9.750;2024-01-10T09:50:45;25.80;;;13.47;;
30635;SDS011;17400;52.392;9.750;2024-01-10T09:53:20;35.80;;;15.97;;
30635;SDS011;17400;52.392;9.750;2024-01-10T09:55:51;34.00;;;14.97;;
30635;SDS011;17400;52.392;9.750;2024-01-10T09:58:23;32.60;;;15.03;;
30635;SDS011;17400;52.392;9.750;2024-01-10T10:00:52;31.77;;;15.17;;
30635;SDS011;17400;52.392;9.750;2024-01-10T10:03:20;31.03;;;14.53;;
30635;SDS011;17400;52.392;9.750;2024-01-10T10:05:48;31.23;;;14.10;;
30635;SDS011;17400;52.392;9.750;2024-01-10T10:08:16;29.57;;;15.50;;
30635;SDS011;17400;52.392;9.750;2024-01-10T10:10:51;30.00;;;15.83;;
30635;SDS011;17400;52.392;9.750;2024-01-10T10:13:24;29.40;;;15.33;;
30635;SDS011;17400;52.392;9.750;2024-01-10T10:15:57;32.60;;;15.40;;
30635;SDS011;17400;52.392;9.750;2024-01-10T10:18:26;40.53;;;15.23;;
30635;SDS011;17400;52.392;9.750;2024-01-10T10:21:07;33.30;;;16.00;;
30635;SDS011;17400;52.392;9.750;2024-01-10T10:23:37;32.13;;;15.47;;
30635;SDS011;17400;52.392;9.750;2024-01-10T10:26:13;30.40;;;14.80;;
30635;SDS011;17400;52.392;9.750;2024-01-10T10:28:47;29.87;;;14.43;;
30635;SDS011;17400;52.392;9.750;2024-01-10T10:31:16;30.33;;;15.00;;
30635;SDS011;17400;52.392;9.750;2024-01-10T10:33:45;30.00;;;14.87;;
30635;SDS011;17400;52.392;9.750;2024-01-10T10:36:15;29.27;;;15.30;;
30635;SDS011;17400;52.392;9.750;2024-01-10T10:38:44;38.37;;;17.60;;
30635;SDS011;17400;52.392;9.750;2024-01-10T10:41:15;39.63;;;19.53;;
30635;SDS011;17400;52.392;9.750;2024-01-10T10:43:43;34.97;;;15.50;;
30635;SDS011;17400;52.392;9.750;2024-01-10T10:46:11;37.67;;;17.40;;
30635;SDS011;17400;52.392;9.750;2024-01-10T10:48:40;31.50;;;17.90;;
30635;SDS011;17400;52.392;9.750;2024-01-10T10:51:10;30.40;;;14.63;;
30635;SDS011;17400;52.392;9.750;2024-01-10T10:53:39;33.63;;;15.93;;
30635;SDS011;17400;52.392;9.750;2024-01-10T10:56:12;32.00;;;15.67;;
30635;SDS011;17400;52.392;9.750;2024-01-10T10:58:42;33.83;;;16.67;;
30635;SDS011;17400;52.392;9.750;2024-01-10T11:01:12;28.87;;;14.53;;
30635;SDS011;17400;52.392;9.750;2024-01-10T11:03:40;35.40;;;16.30;;
30635;SDS011;17400;52.392;9.750;2024-01-10T11:06:11;35.57;;;16.40;;
30635;SDS011;17400;52.392;9.750;2024-01-10T11:08:40;33.47;;;16.43;;
30635;SDS011;17400;52.392;9.750;2024-01-10T11:11:16;31.83;;;16.60;;
30635;SDS011;17400;52.392;9.750;2024-01-10T11:14:01;35.03;;;17.47;;
30635;SDS011;17400;52.392;9.750;2024-01-10T11:16:48;27.97;;;15.47;;
30635;SDS011;17400;52.392;9.750;2024-01-10T11:19:38;30.27;;;14.00;;
30635;SDS011;17400;52.392;9.750;2024-01-10T11:25:21;35.23;;;14.80;;
30635;SDS011;17400;52.392;9.750;2024-01-10T11:27:51;30.43;;;15.20;;
30635;SDS011;17400;52.392;9.750;2024-01-10T11:30:34;38.87;;;17.83;;
30635;SDS011;17400;52.392;9.750;2024-01-10T11:33:08;35.70;;;17.03;;
30635;SDS011;17400;52.392;9.750;2024-01-10T11:38:44;27.27;;;13.10;;
30635;SDS011;17400;52.392;9.750;2024-01-10T11:41:20;28.37;;;14.30;;
30635;SDS011;17400;52.392;9.750;2024-01-10T11:46:58;31.53;;;16.63;;
30635;SDS011;17400;52.392;9.750;2024-01-10T11:49:27;26.13;;;13.83;;
30635;SDS011;17400;52.392;9.750;2024-01-10T11:51:56;33.33;;;15.53;;
30635;SDS011;17400;52.392;9.750;2024-01-10T11:54:38;37.53;;;15.60;;
30635;SDS011;17400;52.392;9.750;2024-01-10T11:57:10;39.17;;;15.37;;
30635;SDS011;17400;52.392;9.750;2024-01-10T11:59:40;38.23;;;16.17;;
30635;SDS011;17400;52.392;9.750;2024-01-10T12:02:11;34.00;;;17.27;;
30635;SDS011;17400;52.392;9.750;2024-01-10T12:04:40;31.03;;;14.60;;
30635;SDS011;17400;52.392;9.750;2024-01-10T12:07:14;29.10;;;15.67;;
30635;SDS011;17400;52.392;9.750;2024-01-10T12:09:45;32.87;;;13.87;;
30635;SDS011;17400;52.392;9.750;2024-01-10T12:12:13;41.03;;;15.13;;
30635;SDS011;17400;52.392;9.750;2024-01-10T12:14:41;32.73;;;14.30;;
30635;SDS011;17400;52.392;9.750;2024-01-10T12:17:12;29.43;;;13.90;;
30635;SDS011;17400;52.392;9.750;2024-01-10T12:19:40;33.67;;;14.00;;
30635;SDS011;17400;52.392;9.750;2024-01-10T12:22:13;29.50;;;13.67;;
30635;SDS011;17400;52.392;9.750;2024-01-10T12:24:43;29.00;;;13.23;;
30635;SDS011;17400;52.392;9.750;2024-01-10T12:27:12;29.23;;;13.63;;
30635;SDS011;17400;52.392;9.750;2024-01-10T12:29:40;35.10;;;18.17;;
30635;SDS011;17400;52.392;9.750;2024-01-10T12:32:08;28.60;;;14.63;;
30635;SDS011;17400;52.392;9.750;2024-01-10T12:34:39;28.53;;;14.03;;
30635;SDS011;17400;52.392;9.750;2024-01-10T12:37:07;34.03;;;14.63;;
30635;SDS011;17400;52.392;9.750;2024-01-10T12:39:38;36.50;;;17.67;;
30635;SDS011;17400;52.392;9.750;2024-01-10T12:42:05;36.40;;;16.07;;
30635;SDS011;17400;52.392;9.750;2024-01-10T12:44:33;35.97;;;15.33;;
30635;SDS011;17400;52.392;9.750;2024-01-10T12:47:03;32.63;;;16.43;;
30635;SDS011;17400;52.392;9.750;2024-01-10T12:49:31;28.30;;;13.37;;
30635;SDS011;17400;52.392;9.750;2024-01-10T12:52:01;33.17;;;14.63;;
30635;SDS011;17400;52.392;9.750;2024-01-10T12:54:35;32.23;;;14.80;;
30635;SDS011;17400;52.392;9.750;2024-01-10T12:57:05;24.33;;;13.43;;
30635;SDS011;17400;52.392;9.750;2024-01-10T12:59:35;34.93;;;16.70;;
30635;SDS011;17400;52.392;9.750;2024-01-10T13:02:03;30.50;;;14.43;;
30635;SDS011;17400;52.392;9.750;2024-01-10T13:04:31;38.67;;;16.47;;
30635;SDS011;17400;52.392;9.750;2024-01-10T13:06:59;29.73;;;14.97;;
30635;SDS011;17400;52.392;9.750;2024-01-10T13:09:30;24.83;;;13.60;;
30635;SDS011;17400;52.392;9.750;2024-01-10T13:11:59;24.17;;;12.53;;
30635;SDS011;17400;52.392;9.750;2024-01-10T13:14:27;29.40;;;12.33;;
30635;SDS011;17400;52.392;9.750;2024-01-10T13:16:57;29.23;;;14.17;;
30635;SDS011;17400;52.392;9.750;2024-01-10T13:19:26;29.67;;;12.97;;
30635;SDS011;17400;52.392;9.750;2024-01-10T13:21:54;26.77;;;14.13;;
30635;SDS011;17400;52.392;9.750;2024-01-10T13:24:22;30.30;;;14.07;;
30635;SDS011;17400;52.392;9.750;2024-01-10T13:26:51;30.83;;;14.10;;
30635;SDS011;17400;52.392;9.750;2024-01-10T13:29:19;30.43;;;14.67;;
30635;SDS011;17400;52.392;9.750;2024-01-10T13:31:46;26.93;;;13.27;;
30635;SDS011;17400;52.392;9.750;2024-01-10T13:34:16;29.13;;;14.67;;
30635;SDS011;17400;52.392;9.750;2024-01-10T13:36:44;29.57;;;13.20;;
30635;SDS011;17400;52.392;9.750;2024-01-10T13:39:11;28.90;;;12.87;;
30635;SDS011;17400;52.392;9.750;2024-01-10T13:41:41;30.00;;;13.90;;
30635;SDS011;17400;52.392;9.750;2024-01-10T13:44:10;28.73;;;13.40;;
30635;SDS011;17400;52.392;9.750;2024-01-10T13:46:38;27.97;;;14.13;;
30635;SDS011;17400;52.392;9.750;2024-01-10T13:49:06;30.87;;;14.40;;
30635;SDS011;17400;52.392;9.750;2024-01-10T13:51:34;29.50;;;13.43;;
30635;SDS011;17400;52.392;9.750;2024-01-10T13:54:06;30.73;;;12.70;;
30635;SDS011;17400;52.392;9.750;2024-01-10T13:56:33;29.20;;;12.83;;
30635;SDS011;17400;52.392;9.750;2024-01-10T13:59:02;25.53;;;12.93;;
30635;SDS011;17400;52.392;9.750;2024-01-10T14:01:31;25.67;;;11.87;;
30635;SDS011;17400;52.392;9.750;2024-01-10T14:03:59;29.33;;;13.27;;
30635;SDS011;17400;52.392;9.750;2024-01-10T14:06:27;31.13;;;12.07;;
30635;SDS011;17400;52.392;9.750;2024-01-10T14:08:58;26.17;;;12.10;;
30635;SDS011;17400;52.392;9.750;2024-01-10T14:11:27;26.27;;;12.73;;
30635;SDS011;17400;52.392;9.750;2024-01-10T14:13:55;27.83;;;12.63;;
30635;SDS011;17400;52.392;9.750;2024-01-10T14:16:23;28.73;;;11.80;;
30635;SDS011;17400;52.392;9.750;2024-01-10T14:18:52;27.53;;;12.53;;
30635;SDS011;17400;52.392;9.750;2024-01-10T14:21:22;23.63;;;12.37;;
30635;SDS011;17400;52.392;9.750;2024-01-10T14:23:49;28.83;;;13.30;;
30635;SDS011;17400;52.392;9.750;2024-01-10T14:26:17;29.47;;;11.50;;
30635;SDS011;17400;52.392;9.750;2024-01-10T14:28:46;29.00;;;13.83;;
30635;SDS011;17400;52.392;9.750;2024-01-10T14:31:14;34.57;;;14.70;;
30635;SDS011;17400;52.392;9.750;2024-01-10T14:33:57;30.10;;;12.27;;
30635;SDS011;17400;52.392;9.750;2024-01-10T14:36:25;29.60;;;12.77;;
30635;SDS011;17400;52.392;9.750;2024-01-10T14:38:56;26.93;;;13.33;;
30635;SDS011;17400;52.392;9.750;2024-01-10T14:41:24;27.30;;;12.93;;
30635;SDS011;17400;52.392;9.750;2024-01-10T14:43:51;30.90;;;11.60;;
30635;SDS011;17400;52.392;9.750;2024-01-10T14:46:19;30.53;;;12.73;;